createdAt,value
2023-09-08T00:01:40.817Z,10.90
2023-09-08T00:04:42.691Z,10.90
2023-09-08T00:07:44.391Z,9.90
2023-09-08T00:10:46.601Z,11.60
2023-09-08T00:13:50.685Z,11.90
2023-09-08T00:16:54.928Z,9.10
2023-09-08T00:19:57.683Z,12.60
2023-09-08T00:22:59.349Z,11.70
2023-09-08T00:26:01.101Z,12.10
2023-09-08T00:29:02.943Z,11.10
2023-09-08T00:32:05.024Z,10.90
2023-09-08T00:38:08.901Z,10.60
2023-09-08T00:41:10.561Z,11.20
2023-09-08T00:44:12.351Z,13.00
2023-09-08T00:47:14.295Z,12.10
2023-09-08T00:50:16.027Z,12.90
2023-09-08T00:53:18.258Z,14.50
2023-09-08T00:59:22.962Z,13.50
2023-09-08T01:02:24.805Z,11.50
2023-09-08T01:05:26.908Z,12.90
2023-09-08T01:08:29.540Z,10.70
2023-09-08T01:11:32.214Z,11.70
2023-09-08T01:14:33.944Z,12.70
2023-09-08T01:17:35.574Z,11.90
2023-09-08T01:20:59.063Z,12.20
2023-09-08T01:24:22.332Z,12.60
2023-09-08T01:27:26.023Z,13.90
2023-09-08T01:30:33.033Z,12.20
2023-09-08T01:33:35.091Z,14.50
2023-09-08T01:39:38.316Z,15.50
2023-09-08T01:42:40.960Z,13.10
2023-09-08T01:45:42.626Z,14.40
2023-09-08T01:51:46.887Z,13.00
2023-09-08T01:54:48.946Z,13.00
2023-09-08T01:57:50.658Z,15.10
2023-09-08T02:03:54.446Z,15.30
2023-09-08T02:06:56.109Z,12.90
2023-09-08T02:09:57.741Z,12.60
2023-09-08T02:13:20.910Z,13.50
2023-09-08T02:16:23.974Z,14.60
2023-09-08T02:19:27.730Z,13.80
2023-09-08T02:22:30.859Z,14.20
2023-09-08T02:25:34.041Z,13.90
2023-09-08T02:28:37.452Z,15.60
2023-09-08T02:31:40.787Z,14.40
2023-09-08T02:34:44.981Z,12.70
2023-09-08T02:37:48.925Z,12.20
2023-09-08T02:40:51.949Z,13.40
2023-09-08T02:43:54.979Z,12.10
2023-09-08T02:46:58.034Z,11.20
2023-09-08T02:50:01.547Z,14.30
2023-09-08T02:53:04.685Z,12.30
2023-09-08T02:56:07.758Z,13.30
2023-09-08T02:59:10.646Z,13.80
2023-09-08T03:02:14.346Z,15.70
2023-09-08T03:05:17.503Z,14.70
2023-09-08T03:08:20.558Z,13.30
2023-09-08T03:11:23.598Z,14.60
2023-09-08T03:14:26.566Z,13.50
2023-09-08T03:17:29.884Z,14.00
2023-09-08T03:20:32.859Z,15.40
2023-09-08T03:23:43.689Z,13.80
2023-09-08T03:26:46.756Z,13.70
2023-09-08T03:29:49.676Z,14.90
2023-09-08T03:32:52.643Z,13.70
2023-09-08T03:35:56.471Z,13.30
2023-09-08T03:38:59.513Z,13.70
2023-09-08T03:42:02.989Z,13.60
2023-09-08T03:45:06.300Z,15.30
2023-09-08T03:48:09.587Z,13.70
2023-09-08T03:51:12.777Z,14.50
2023-09-08T03:54:16.000Z,12.90
2023-09-08T03:57:19.030Z,16.70
2023-09-08T04:00:25.262Z,15.20
2023-09-08T04:03:28.370Z,13.80
2023-09-08T04:06:32.130Z,16.00
2023-09-08T04:09:35.240Z,14.90
2023-09-08T04:12:38.269Z,19.50
2023-09-08T04:15:41.313Z,14.40
2023-09-08T04:18:44.549Z,15.40
2023-09-08T04:21:47.575Z,17.60
2023-09-08T04:24:51.008Z,12.80
2023-09-08T04:27:54.477Z,15.70
2023-09-08T04:30:57.505Z,13.00
2023-09-08T04:34:00.841Z,15.00
2023-09-08T04:37:04.381Z,13.60
2023-09-08T04:40:08.680Z,14.00
2023-09-08T04:43:11.966Z,13.60
2023-09-08T04:46:14.995Z,15.20
2023-09-08T04:49:18.053Z,16.90
2023-09-08T04:52:22.418Z,14.70
2023-09-08T04:55:25.606Z,14.00
2023-09-08T04:58:28.638Z,14.20
2023-09-08T05:01:33.729Z,15.30
2023-09-08T05:04:38.340Z,13.50
2023-09-08T05:07:41.485Z,16.80
2023-09-08T05:10:47.626Z,16.80
2023-09-08T05:13:51.468Z,12.50
2023-09-08T05:16:57.363Z,16.60
2023-09-08T05:20:04.509Z,13.50
2023-09-08T05:23:07.668Z,17.00
2023-09-08T05:32:01.210Z,15.70
2023-09-08T05:35:05.523Z,15.80
2023-09-08T05:38:08.671Z,16.80
2023-09-08T05:41:11.856Z,16.50
2023-09-08T05:44:15.255Z,14.40
2023-09-08T05:47:18.568Z,17.40
2023-09-08T05:50:21.972Z,17.20
2023-09-08T05:53:25.587Z,18.60
2023-09-08T05:56:32.963Z,18.60
2023-09-08T05:59:36.132Z,17.30
2023-09-08T06:02:39.279Z,16.60
2023-09-08T06:05:42.561Z,13.80
2023-09-08T06:08:45.552Z,16.50
2023-09-08T06:11:48.881Z,15.50
2023-09-08T06:14:52.389Z,17.80
2023-09-08T06:17:55.626Z,16.30
2023-09-08T06:20:59.067Z,16.30
2023-09-08T06:24:06.451Z,18.90
2023-09-08T06:27:10.367Z,18.80
2023-09-08T06:30:19.401Z,20.40
2023-09-08T06:33:23.577Z,19.20
2023-09-08T06:36:36.076Z,14.30
2023-09-08T06:39:39.556Z,17.30
2023-09-08T06:42:44.894Z,15.00
2023-09-08T06:45:54.395Z,15.10
2023-09-08T06:48:58.669Z,15.40
2023-09-08T06:52:02.023Z,16.50
2023-09-08T06:55:06.342Z,24.20
2023-09-08T06:58:09.473Z,16.20
2023-09-08T07:01:12.603Z,13.00
2023-09-08T07:04:16.111Z,19.20
2023-09-08T07:07:21.661Z,13.20
2023-09-08T07:10:25.759Z,11.60
2023-09-08T07:13:29.158Z,17.00
2023-09-08T07:16:33.951Z,14.20
2023-09-08T07:19:44.966Z,12.00
2023-09-08T07:22:48.487Z,14.20
2023-09-08T07:25:51.831Z,13.10
2023-09-08T07:28:58.156Z,15.00
2023-09-08T07:32:03.935Z,10.00
2023-09-08T07:35:15.344Z,14.80
2023-09-08T07:38:22.359Z,12.30
2023-09-08T07:41:25.741Z,14.20
2023-09-08T07:44:29.974Z,11.00
2023-09-08T07:47:33.303Z,13.70
2023-09-08T07:50:39.090Z,13.70
2023-09-08T07:53:42.285Z,11.90
2023-09-08T07:56:45.485Z,10.10
2023-09-08T07:59:48.553Z,10.90
2023-09-08T08:02:55.623Z,10.30
2023-09-08T08:06:00.026Z,13.20
2023-09-08T08:09:03.694Z,9.50
2023-09-08T08:12:06.924Z,10.40
2023-09-08T08:15:11.364Z,12.80
2023-09-08T08:18:14.809Z,14.50
2023-09-08T08:21:18.038Z,13.80
2023-09-08T08:24:21.062Z,10.30
2023-09-08T08:27:24.216Z,12.40
2023-09-08T08:30:28.457Z,12.50
2023-09-08T08:33:33.269Z,13.10
2023-09-08T08:36:36.589Z,12.30
2023-09-08T08:39:40.364Z,8.10
2023-09-08T08:42:43.734Z,12.40
2023-09-08T08:45:50.199Z,9.00
2023-09-08T08:48:55.659Z,10.40
2023-09-08T08:52:09.667Z,10.40
2023-09-08T08:55:13.716Z,10.30
2023-09-08T08:58:29.811Z,11.60
2023-09-08T09:01:36.574Z,8.00
2023-09-08T09:04:40.507Z,7.50
2023-09-08T09:07:44.366Z,8.10
2023-09-08T09:10:48.077Z,8.40
2023-09-08T09:13:51.225Z,8.80
2023-09-08T09:16:57.955Z,8.40
2023-09-08T09:20:15.547Z,9.50
2023-09-08T09:23:31.754Z,9.40
2023-09-08T09:26:35.043Z,10.40
2023-09-08T09:29:48.934Z,10.70
2023-09-08T09:33:06.055Z,6.80
2023-09-08T09:36:10.436Z,8.00
2023-09-08T09:39:18.000Z,7.40
2023-09-08T09:42:22.853Z,10.90
2023-09-08T09:45:29.223Z,6.90
2023-09-08T09:48:32.468Z,10.30
2023-09-08T09:51:41.983Z,6.60
2023-09-08T09:54:47.897Z,7.60
2023-09-08T09:57:52.852Z,6.20
2023-09-08T10:00:58.052Z,7.10
2023-09-08T10:04:02.538Z,8.80
2023-09-08T10:07:05.669Z,7.60
2023-09-08T10:10:09.887Z,8.40
2023-09-08T10:13:15.122Z,6.40
2023-09-08T10:16:21.959Z,5.60
2023-09-08T10:19:25.190Z,8.60
2023-09-08T10:22:33.314Z,6.80
2023-09-08T10:25:43.530Z,8.10
2023-09-08T10:28:47.138Z,6.80
2023-09-08T10:31:50.395Z,6.00
2023-09-08T10:34:55.220Z,6.40
2023-09-08T10:38:24.989Z,5.70
2023-09-08T10:41:29.996Z,7.10
2023-09-08T10:44:33.886Z,5.60
2023-09-08T10:48:00.009Z,6.60
2023-09-08T10:51:06.194Z,6.40
2023-09-08T10:54:09.420Z,7.60
2023-09-08T10:57:17.686Z,6.50
2023-09-08T11:00:21.792Z,5.10
2023-09-08T11:03:43.363Z,5.90
2023-09-08T11:06:46.478Z,5.90
2023-09-08T11:09:49.472Z,5.50
2023-09-08T11:12:52.793Z,7.60
2023-09-08T11:15:56.819Z,6.00
2023-09-08T11:19:00.013Z,6.20
2023-09-08T11:22:03.665Z,5.00
2023-09-08T11:25:12.804Z,5.20
2023-09-08T11:35:58.510Z,5.20
2023-09-08T11:39:01.009Z,6.80
2023-09-08T11:42:03.241Z,4.20
2023-09-08T11:45:05.556Z,5.00
2023-09-08T11:48:07.363Z,5.50
2023-09-08T11:54:11.841Z,5.60
2023-09-08T11:57:14.176Z,5.60
2023-09-08T12:00:18.496Z,6.00
2023-09-08T12:03:20.336Z,6.30
2023-09-08T12:06:27.869Z,5.30
2023-09-08T12:09:29.738Z,7.00
2023-09-08T12:15:35.744Z,10.00
2023-09-08T12:18:39.636Z,5.50
2023-09-08T12:21:58.312Z,7.50
2023-09-08T12:25:02.469Z,5.10
2023-09-08T12:28:04.973Z,6.10
2023-09-08T12:31:13.131Z,5.40
2023-09-08T12:34:15.837Z,7.90
2023-09-08T12:37:25.666Z,6.50
2023-09-08T12:43:32.517Z,7.70
2023-09-08T12:49:37.734Z,5.40
2023-09-08T12:52:39.892Z,5.10
2023-09-08T12:55:41.655Z,7.20
2023-09-08T12:58:43.415Z,6.20
2023-09-08T13:01:45.234Z,7.90
2023-09-08T13:04:49.055Z,6.20
2023-09-08T13:07:50.786Z,11.40
2023-09-08T13:10:53.114Z,8.90
2023-09-08T13:13:54.834Z,6.60
2023-09-08T13:16:56.658Z,4.60
2023-09-08T13:23:00.115Z,7.60
2023-09-08T13:29:03.801Z,5.80
2023-09-08T13:32:06.115Z,7.30
2023-09-08T13:35:08.140Z,7.00
2023-09-08T13:41:11.506Z,6.60
2023-09-08T13:47:15.664Z,8.00
2023-09-08T13:50:24.562Z,6.40
2023-09-08T13:53:41.738Z,7.40
2023-09-08T14:00:04.782Z,11.10
2023-09-08T14:03:15.556Z,9.50
2023-09-08T14:06:21.898Z,8.40
2023-09-08T14:12:36.033Z,9.70
2023-09-08T14:15:38.241Z,8.30
2023-09-08T14:18:40.736Z,7.60
2023-09-08T14:21:42.447Z,7.70
2023-09-08T14:24:44.135Z,9.80
2023-09-08T14:27:45.912Z,9.60
2023-09-08T14:30:47.637Z,8.90
2023-09-08T14:33:49.646Z,6.40
2023-09-08T14:36:51.386Z,7.40
2023-09-08T14:39:53.025Z,9.40
2023-09-08T14:45:59.768Z,11.50
2023-09-08T14:49:02.823Z,10.20
2023-09-08T14:52:04.586Z,8.60
2023-09-08T14:55:06.520Z,9.20
2023-09-08T15:01:10.397Z,8.70
2023-09-08T15:04:12.298Z,11.50
2023-09-08T15:10:16.053Z,9.40
2023-09-08T15:13:18.002Z,8.30
2023-09-08T15:19:21.293Z,8.40
2023-09-08T15:22:23.330Z,7.90
2023-09-08T15:25:24.957Z,8.70
2023-09-08T15:28:26.594Z,7.20
2023-09-08T15:31:28.389Z,7.20
2023-09-08T15:37:31.736Z,9.00
2023-09-08T15:40:33.319Z,7.10
2023-09-08T15:43:38.864Z,7.30
2023-09-08T15:46:41.467Z,7.50
2023-09-08T15:49:43.244Z,10.10
2023-09-08T15:52:44.881Z,7.60
2023-09-08T15:55:46.668Z,7.00
2023-09-08T15:58:48.369Z,7.00
2023-09-08T16:01:50.259Z,8.70
2023-09-08T16:04:52.046Z,8.00
2023-09-08T16:10:55.879Z,9.70
2023-09-08T16:16:59.064Z,6.20
2023-09-08T16:20:00.968Z,7.40
2023-09-08T16:26:05.587Z,9.50
2023-09-08T16:29:07.349Z,6.90
2023-09-08T16:32:11.160Z,7.80
2023-09-08T16:35:13.376Z,5.80
2023-09-08T16:38:15.199Z,8.90
2023-09-08T16:41:16.785Z,10.70
2023-09-08T16:44:18.408Z,8.90
2023-09-08T16:47:20.998Z,7.80
2023-09-08T16:50:22.829Z,9.40
2023-09-08T16:53:24.445Z,7.60
2023-09-08T16:56:26.141Z,7.50
2023-09-08T16:59:27.911Z,8.10
2023-09-08T17:02:29.988Z,10.60
2023-09-08T17:05:31.721Z,7.90
2023-09-08T17:08:33.564Z,7.70
2023-09-08T17:14:42.390Z,9.30
2023-09-08T17:17:44.384Z,10.40
2023-09-08T17:20:46.546Z,8.70
2023-09-08T17:23:48.241Z,10.60
2023-09-08T17:26:49.904Z,10.10
2023-09-08T17:29:51.631Z,11.30
2023-09-08T17:32:53.276Z,14.10
2023-09-08T17:35:54.922Z,8.60
2023-09-08T17:38:56.727Z,12.30
2023-09-08T17:47:44.958Z,10.80
2023-09-08T17:50:47.919Z,14.00
2023-09-08T17:53:50.851Z,10.50
2023-09-08T17:56:53.828Z,10.90
2023-09-08T17:59:56.736Z,10.00
2023-09-08T18:02:59.911Z,14.00
2023-09-08T18:06:05.478Z,11.90
2023-09-08T18:09:08.997Z,15.60
2023-09-08T18:12:12.247Z,14.30
2023-09-08T18:15:15.315Z,11.50
2023-09-08T18:18:20.806Z,14.00
2023-09-08T18:21:23.969Z,13.70
2023-09-08T18:24:27.137Z,11.70
2023-09-08T18:27:31.169Z,11.40
2023-09-08T18:30:34.736Z,10.50
2023-09-08T18:33:38.207Z,12.60
2023-09-08T18:36:41.780Z,12.80
2023-09-08T18:39:47.604Z,15.00
2023-09-08T18:42:50.700Z,18.10
2023-09-08T18:45:54.194Z,18.20
2023-09-08T18:48:57.253Z,13.50
2023-09-08T18:52:00.170Z,12.90
2023-09-08T18:55:05.029Z,14.30
2023-09-08T18:58:09.019Z,14.00
2023-09-08T19:01:12.077Z,17.10
2023-09-08T19:04:15.083Z,21.40
2023-09-08T19:07:18.145Z,16.70
2023-09-08T19:10:21.223Z,22.30
2023-09-08T19:13:24.167Z,20.80
2023-09-08T19:16:27.162Z,22.00
2023-09-08T19:19:30.214Z,17.40
2023-09-08T19:22:33.206Z,18.90
2023-09-08T19:25:40.224Z,20.90
2023-09-08T19:28:43.223Z,18.90
2023-09-08T19:31:46.196Z,16.90
2023-09-08T19:34:49.153Z,19.60
2023-09-08T19:37:52.159Z,16.00
2023-09-08T19:41:03.625Z,16.00
2023-09-08T19:44:07.492Z,17.00
2023-09-08T19:47:10.608Z,20.70
2023-09-08T19:50:13.629Z,19.90
2023-09-08T19:53:17.169Z,14.70
2023-09-08T19:56:20.264Z,17.80
2023-09-08T19:59:23.335Z,18.10
2023-09-08T20:02:26.283Z,16.90
2023-09-08T20:05:29.263Z,17.70
2023-09-08T20:08:32.374Z,18.60
2023-09-08T20:11:35.400Z,19.60
2023-09-08T20:14:38.273Z,21.00
2023-09-08T20:17:41.778Z,26.10
2023-09-08T20:20:44.940Z,23.30
2023-09-08T20:23:47.940Z,23.90
2023-09-08T20:26:51.097Z,26.80
2023-09-08T20:29:57.606Z,28.20
2023-09-08T20:33:00.883Z,24.10
2023-09-08T20:36:04.094Z,21.20
2023-09-08T20:39:07.372Z,22.80
2023-09-08T20:42:12.672Z,24.10
2023-09-08T20:45:18.639Z,25.20
2023-09-08T20:48:22.822Z,24.50
2023-09-08T20:51:25.784Z,28.50
2023-09-08T20:54:30.121Z,25.70
2023-09-08T20:57:34.038Z,23.70
2023-09-08T21:00:40.619Z,20.70
2023-09-08T21:03:43.704Z,22.10
2023-09-08T21:06:47.090Z,26.20
2023-09-08T21:09:50.396Z,19.90
2023-09-08T21:12:53.782Z,20.60
2023-09-08T21:15:58.074Z,22.30
2023-09-08T21:19:01.887Z,20.20
2023-09-08T21:22:05.867Z,21.80
2023-09-08T21:25:11.979Z,20.00
2023-09-08T21:28:16.674Z,18.90
2023-09-08T21:31:20.452Z,17.80
2023-09-08T21:34:26.484Z,17.70
2023-09-08T21:37:29.528Z,18.10
2023-09-08T21:40:32.626Z,17.30
2023-09-08T21:43:35.885Z,20.10
2023-09-08T21:46:39.073Z,20.80
2023-09-08T21:49:42.195Z,19.40
2023-09-08T21:52:45.415Z,22.20
2023-09-08T21:55:48.381Z,27.40
2023-09-08T21:58:51.284Z,24.90
2023-09-08T22:01:54.280Z,27.80
2023-09-08T22:04:57.431Z,32.30
2023-09-08T22:08:00.754Z,27.80
2023-09-08T22:11:06.158Z,29.90
2023-09-08T22:14:09.639Z,29.10
2023-09-08T22:17:12.611Z,29.20
2023-09-08T22:20:16.832Z,29.50
2023-09-08T22:23:19.744Z,28.90
2023-09-08T22:26:23.734Z,26.90
2023-09-08T22:29:26.847Z,26.40
2023-09-08T22:32:29.807Z,28.30
2023-09-08T22:35:32.828Z,25.90
2023-09-08T22:38:36.038Z,25.70
2023-09-08T22:41:39.024Z,27.20
2023-09-08T22:44:42.024Z,28.60
2023-09-08T22:47:45.157Z,23.80
2023-09-08T22:50:48.753Z,24.10
2023-09-08T22:53:51.787Z,23.10
2023-09-08T22:56:54.695Z,23.60
2023-09-08T22:59:57.864Z,21.70
2023-09-08T23:03:01.007Z,20.20
2023-09-08T23:06:04.527Z,22.60
2023-09-08T23:09:07.734Z,23.40
2023-09-08T23:12:11.368Z,19.70
2023-09-08T23:15:14.711Z,22.20
2023-09-08T23:18:18.194Z,22.10
2023-09-08T23:21:21.217Z,19.60
2023-09-08T23:24:24.337Z,19.70
2023-09-08T23:27:27.340Z,22.20
2023-09-08T23:30:30.336Z,21.60
2023-09-08T23:33:33.534Z,23.70
2023-09-08T23:36:36.493Z,18.70
2023-09-08T23:39:39.426Z,21.80
2023-09-08T23:42:42.796Z,22.10
2023-09-08T23:45:46.398Z,21.80
2023-09-08T23:48:49.580Z,21.60
2023-09-08T23:51:53.056Z,20.30
2023-09-08T23:54:55.981Z,21.90
2023-09-08T23:57:58.934Z,22.70
